Terminal Aerodrome Forecast
Issued by NWS Sterling, VA

Home | Current Version | Previous Version | Text Only | Print | Product List | Glossary On
Versions: 1 2 3 4 5 6 7 8 9 10 11 12 13 14 15 16 17 18 19 20 21 22 23 24 25 26 27 28
000
FTUS41 KLWX 290533
TAFIAD
TAF
KIAD 290533Z 2906/3012 32013KT P6SM SKC
     FM291000 32006KT P6SM SKC
     FM291800 30005KT P6SM SKC
     FM292000 24005KT P6SM FEW250
     FM292300 18005KT P6SM FEW250
     FM300600 19008KT P6SM OVC070=

USA.gov is the U.S. government's official web portal to all federal, state and local government web resources and services.